sensor_id;sensor_type;location;lat;lon;timestamp;P1;durP1;ratioP1;P2;durP2;ratioP2
17850;SDS011;9051;51.548;14.348;2023-03-11T00:00:54;0.53;;;0.53;;
17850;SDS011;9051;51.548;14.348;2023-03-11T00:03:26;0.50;;;0.50;;
17850;SDS011;9051;51.548;14.348;2023-03-11T00:06:02;1.00;;;0.60;;
17850;SDS011;9051;51.548;14.348;2023-03-11T00:08:34;0.50;;;0.50;;
17850;SDS011;9051;51.548;14.348;2023-03-11T00:11:06;0.30;;;0.30;;
17850;SDS011;9051;51.548;14.348;2023-03-11T00:13:41;0.80;;;0.70;;
17850;SDS011;9051;51.548;14.348;2023-03-11T00:16:13;0.37;;;0.37;;
17850;SDS011;9051;51.548;14.348;2023-03-11T00:18:46;0.50;;;0.50;;
17850;SDS011;9051;51.548;14.348;2023-03-11T00:21:23;0.63;;;0.63;;
17850;SDS011;9051;51.548;14.348;2023-03-11T00:23:55;0.93;;;0.90;;
17850;SDS011;9051;51.548;14.348;2023-03-11T00:26:30;0.90;;;0.90;;
17850;SDS011;9051;51.548;14.348;2023-03-11T00:29:02;0.97;;;0.97;;
17850;SDS011;9051;51.548;14.348;2023-03-11T00:31:34;0.90;;;0.90;;
17850;SDS011;9051;51.548;14.348;2023-03-11T00:34:05;0.90;;;0.90;;
17850;SDS011;9051;51.548;14.348;2023-03-11T00:36:39;0.97;;;0.97;;
17850;SDS011;9051;51.548;14.348;2023-03-11T00:39:11;1.30;;;1.20;;
17850;SDS011;9051;51.548;14.348;2023-03-11T00:41:47;1.10;;;1.10;;
17850;SDS011;9051;51.548;14.348;2023-03-11T00:44:19;1.10;;;1.10;;
17850;SDS011;9051;51.548;14.348;2023-03-11T00:46:51;0.87;;;0.73;;
17850;SDS011;9051;51.548;14.348;2023-03-11T00:49:23;1.17;;;0.80;;
17850;SDS011;9051;51.548;14.348;2023-03-11T00:51:56;0.80;;;0.80;;
17850;SDS011;9051;51.548;14.348;2023-03-11T00:54:28;0.77;;;0.77;;
17850;SDS011;9051;51.548;14.348;2023-03-11T00:57:01;1.00;;;0.90;;
17850;SDS011;9051;51.548;14.348;2023-03-11T00:59:33;0.90;;;0.90;;
17850;SDS011;9051;51.548;14.348;2023-03-11T01:02:05;0.90;;;0.90;;
17850;SDS011;9051;51.548;14.348;2023-03-11T01:04:37;0.90;;;0.90;;
17850;SDS011;9051;51.548;14.348;2023-03-11T01:07:11;0.90;;;0.90;;
17850;SDS011;9051;51.548;14.348;2023-03-11T01:09:43;0.80;;;0.80;;
17850;SDS011;9051;51.548;14.348;2023-03-11T01:12:15;0.87;;;0.70;;
17850;SDS011;9051;51.548;14.348;2023-03-11T01:14:47;0.93;;;0.93;;
17850;SDS011;9051;51.548;14.348;2023-03-11T01:17:19;0.93;;;0.93;;
17850;SDS011;9051;51.548;14.348;2023-03-11T01:19:51;0.80;;;0.80;;
17850;SDS011;9051;51.548;14.348;2023-03-11T01:22:26;0.97;;;0.97;;
17850;SDS011;9051;51.548;14.348;2023-03-11T01:24:59;0.80;;;0.80;;
17850;SDS011;9051;51.548;14.348;2023-03-11T01:27:31;0.73;;;0.73;;
17850;SDS011;9051;51.548;14.348;2023-03-11T01:30:03;0.80;;;0.80;;
17850;SDS011;9051;51.548;14.348;2023-03-11T01:32:35;0.90;;;0.90;;
17850;SDS011;9051;51.548;14.348;2023-03-11T01:35:08;0.73;;;0.73;;
17850;SDS011;9051;51.548;14.348;2023-03-11T01:37:42;0.70;;;0.70;;
17850;SDS011;9051;51.548;14.348;2023-03-11T01:40:16;1.27;;;0.90;;
17850;SDS011;9051;51.548;14.348;2023-03-11T01:42:51;1.00;;;0.70;;
17850;SDS011;9051;51.548;14.348;2023-03-11T01:45:27;0.47;;;0.47;;
17850;SDS011;9051;51.548;14.348;2023-03-11T01:48:09;0.80;;;0.80;;
17850;SDS011;9051;51.548;14.348;2023-03-11T01:50:42;0.60;;;0.60;;
17850;SDS011;9051;51.548;14.348;2023-03-11T01:53:20;0.80;;;0.80;;
17850;SDS011;9051;51.548;14.348;2023-03-11T01:55:54;0.70;;;0.70;;
17850;SDS011;9051;51.548;14.348;2023-03-11T01:58:27;0.80;;;0.80;;
17850;SDS011;9051;51.548;14.348;2023-03-11T02:01:02;0.57;;;0.57;;
17850;SDS011;9051;51.548;14.348;2023-03-11T02:03:37;0.50;;;0.50;;
17850;SDS011;9051;51.548;14.348;2023-03-11T02:06:11;0.40;;;0.40;;
17850;SDS011;9051;51.548;14.348;2023-03-11T02:08:48;0.53;;;0.53;;
17850;SDS011;9051;51.548;14.348;2023-03-11T02:11:22;0.40;;;0.40;;
17850;SDS011;9051;51.548;14.348;2023-03-11T02:13:58;1.13;;;0.60;;
17850;SDS011;9051;51.548;14.348;2023-03-11T02:16:33;0.60;;;0.60;;
17850;SDS011;9051;51.548;14.348;2023-03-11T02:19:08;0.57;;;0.57;;
17850;SDS011;9051;51.548;14.348;2023-03-11T02:21:47;0.63;;;0.63;;
17850;SDS011;9051;51.548;14.348;2023-03-11T02:24:23;0.60;;;0.60;;
17850;SDS011;9051;51.548;14.348;2023-03-11T02:27:05;0.63;;;0.63;;
17850;SDS011;9051;51.548;14.348;2023-03-11T02:29:40;0.57;;;0.57;;
17850;SDS011;9051;51.548;14.348;2023-03-11T02:32:14;0.83;;;0.83;;
17850;SDS011;9051;51.548;14.348;2023-03-11T02:34:47;0.60;;;0.60;;
17850;SDS011;9051;51.548;14.348;2023-03-11T02:37:19;0.60;;;0.60;;
17850;SDS011;9051;51.548;14.348;2023-03-11T02:40:24;0.90;;;0.80;;
17850;SDS011;9051;51.548;14.348;2023-03-11T02:43:13;0.70;;;0.70;;
17850;SDS011;9051;51.548;14.348;2023-03-11T02:45:48;1.20;;;1.10;;
17850;SDS011;9051;51.548;14.348;2023-03-11T02:48:24;1.20;;;1.10;;
17850;SDS011;9051;51.548;14.348;2023-03-11T02:50:57;1.30;;;1.20;;
17850;SDS011;9051;51.548;14.348;2023-03-11T02:53:31;1.10;;;1.00;;
17850;SDS011;9051;51.548;14.348;2023-03-11T02:56:09;2.40;;;1.27;;
17850;SDS011;9051;51.548;14.348;2023-03-11T02:58:42;1.60;;;1.50;;
17850;SDS011;9051;51.548;14.348;2023-03-11T03:01:14;1.87;;;1.40;;
17850;SDS011;9051;51.548;14.348;2023-03-11T03:03:48;1.40;;;1.30;;
17850;SDS011;9051;51.548;14.348;2023-03-11T03:06:21;1.30;;;1.20;;
17850;SDS011;9051;51.548;14.348;2023-03-11T03:08:55;1.40;;;1.30;;
17850;SDS011;9051;51.548;14.348;2023-03-11T03:11:27;1.50;;;1.40;;
17850;SDS011;9051;51.548;14.348;2023-03-11T03:14:01;1.60;;;1.50;;
17850;SDS011;9051;51.548;14.348;2023-03-11T03:16:34;1.40;;;1.30;;
17850;SDS011;9051;51.548;14.348;2023-03-11T03:19:06;1.93;;;1.50;;
17850;SDS011;9051;51.548;14.348;2023-03-11T03:21:41;1.00;;;0.87;;
17850;SDS011;9051;51.548;14.348;2023-03-11T03:24:13;1.30;;;1.20;;
17850;SDS011;9051;51.548;14.348;2023-03-11T03:26:44;0.70;;;0.70;;
17850;SDS011;9051;51.548;14.348;2023-03-11T03:29:18;0.80;;;0.80;;
17850;SDS011;9051;51.548;14.348;2023-03-11T03:31:52;0.63;;;0.63;;
17850;SDS011;9051;51.548;14.348;2023-03-11T03:34:25;0.60;;;0.60;;
17850;SDS011;9051;51.548;14.348;2023-03-11T03:36:56;0.90;;;0.90;;
17850;SDS011;9051;51.548;14.348;2023-03-11T03:39:29;0.73;;;0.67;;
17850;SDS011;9051;51.548;14.348;2023-03-11T03:42:01;0.87;;;0.70;;
17850;SDS011;9051;51.548;14.348;2023-03-11T03:44:38;0.50;;;0.50;;
17850;SDS011;9051;51.548;14.348;2023-03-11T03:47:10;0.57;;;0.57;;
17850;SDS011;9051;51.548;14.348;2023-03-11T03:49:42;0.30;;;0.30;;
17850;SDS011;9051;51.548;14.348;2023-03-11T03:52:14;1.20;;;0.40;;
17850;SDS011;9051;51.548;14.348;2023-03-11T03:54:46;0.73;;;0.30;;
17850;SDS011;9051;51.548;14.348;2023-03-11T03:57:18;0.50;;;0.50;;
17850;SDS011;9051;51.548;14.348;2023-03-11T03:59:53;0.20;;;0.20;;
17850;SDS011;9051;51.548;14.348;2023-03-11T04:02:25;0.20;;;0.20;;
17850;SDS011;9051;51.548;14.348;2023-03-11T04:04:58;0.17;;;0.17;;
17850;SDS011;9051;51.548;14.348;2023-03-11T04:07:32;0.17;;;0.17;;
17850;SDS011;9051;51.548;14.348;2023-03-11T04:10:04;0.30;;;0.30;;
17850;SDS011;9051;51.548;14.348;2023-03-11T04:12:37;0.40;;;0.20;;
17850;SDS011;9051;51.548;14.348;2023-03-11T04:15:12;0.30;;;0.30;;
17850;SDS011;9051;51.548;14.348;2023-03-11T04:17:46;0.70;;;0.60;;
17850;SDS011;9051;51.548;14.348;2023-03-11T04:20:19;0.43;;;0.43;;
17850;SDS011;9051;51.548;14.348;2023-03-11T04:22:53;0.60;;;0.60;;
17850;SDS011;9051;51.548;14.348;2023-03-11T04:25:27;1.03;;;0.90;;
17850;SDS011;9051;51.548;14.348;2023-03-11T04:27:59;1.03;;;0.93;;
17850;SDS011;9051;51.548;14.348;2023-03-11T04:30:34;0.70;;;0.70;;
17850;SDS011;9051;51.548;14.348;2023-03-11T04:33:06;0.70;;;0.63;;
17850;SDS011;9051;51.548;14.348;2023-03-11T04:35:38;1.33;;;0.80;;
17850;SDS011;9051;51.548;14.348;2023-03-11T04:38:11;0.80;;;0.80;;
17850;SDS011;9051;51.548;14.348;2023-03-11T04:40:43;0.70;;;0.70;;
17850;SDS011;9051;51.548;14.348;2023-03-11T04:43:15;0.80;;;0.80;;
17850;SDS011;9051;51.548;14.348;2023-03-11T04:45:50;1.00;;;1.00;;
17850;SDS011;9051;51.548;14.348;2023-03-11T04:48:24;1.10;;;1.00;;
17850;SDS011;9051;51.548;14.348;2023-03-11T04:50:57;1.10;;;1.00;;
17850;SDS011;9051;51.548;14.348;2023-03-11T04:53:32;1.37;;;1.00;;
17850;SDS011;9051;51.548;14.348;2023-03-11T04:56:04;1.00;;;1.00;;
17850;SDS011;9051;51.548;14.348;2023-03-11T04:58:37;1.03;;;0.97;;
17850;SDS011;9051;51.548;14.348;2023-03-11T05:01:11;1.30;;;1.20;;
17850;SDS011;9051;51.548;14.348;2023-03-11T05:03:44;1.40;;;1.23;;
17850;SDS011;9051;51.548;14.348;2023-03-11T05:06:16;0.97;;;0.97;;
17850;SDS011;9051;51.548;14.348;2023-03-11T05:08:48;1.20;;;1.10;;
17850;SDS011;9051;51.548;14.348;2023-03-11T05:11:22;1.57;;;1.33;;
17850;SDS011;9051;51.548;14.348;2023-03-11T05:13:55;1.20;;;1.10;;
17850;SDS011;9051;51.548;14.348;2023-03-11T05:16:28;1.40;;;1.30;;
17850;SDS011;9051;51.548;14.348;2023-03-11T05:19:01;1.57;;;1.47;;
17850;SDS011;9051;51.548;14.348;2023-03-11T05:21:53;1.53;;;1.40;;
17850;SDS011;9051;51.548;14.348;2023-03-11T05:24:26;2.63;;;1.50;;
17850;SDS011;9051;51.548;14.348;2023-03-11T05:26:59;1.20;;;1.10;;
17850;SDS011;9051;51.548;14.348;2023-03-11T05:29:32;1.40;;;1.30;;
17850;SDS011;9051;51.548;14.348;2023-03-11T05:32:06;1.63;;;1.53;;
17850;SDS011;9051;51.548;14.348;2023-03-11T05:34:38;1.10;;;1.00;;
17850;SDS011;9051;51.548;14.348;2023-03-11T05:37:11;1.80;;;1.50;;
17850;SDS011;9051;51.548;14.348;2023-03-11T05:39:44;1.50;;;1.40;;
17850;SDS011;9051;51.548;14.348;2023-03-11T05:42:17;1.20;;;1.10;;
17850;SDS011;9051;51.548;14.348;2023-03-11T05:44:51;1.53;;;1.43;;
17850;SDS011;9051;51.548;14.348;2023-03-11T05:47:32;2.63;;;1.70;;
17850;SDS011;9051;51.548;14.348;2023-03-11T05:50:08;2.00;;;1.80;;
17850;SDS011;9051;51.548;14.348;2023-03-11T05:52:43;1.40;;;1.30;;
17850;SDS011;9051;51.548;14.348;2023-03-11T05:55:15;1.73;;;1.50;;
17850;SDS011;9051;51.548;14.348;2023-03-11T05:57:49;1.70;;;1.47;;
17850;SDS011;9051;51.548;14.348;2023-03-11T06:00:22;1.50;;;1.40;;
17850;SDS011;9051;51.548;14.348;2023-03-11T06:02:57;1.60;;;1.37;;
17850;SDS011;9051;51.548;14.348;2023-03-11T06:05:30;1.60;;;1.40;;
17850;SDS011;9051;51.548;14.348;2023-03-11T06:08:02;1.50;;;1.37;;
17850;SDS011;9051;51.548;14.348;2023-03-11T06:10:34;1.50;;;1.37;;
17850;SDS011;9051;51.548;14.348;2023-03-11T06:13:07;1.30;;;1.20;;
17850;SDS011;9051;51.548;14.348;2023-03-11T06:15:46;1.57;;;1.47;;
17850;SDS011;9051;51.548;14.348;2023-03-11T06:18:20;1.50;;;1.40;;
17850;SDS011;9051;51.548;14.348;2023-03-11T06:20:56;1.97;;;1.30;;
17850;SDS011;9051;51.548;14.348;2023-03-11T06:23:30;1.20;;;1.10;;
17850;SDS011;9051;51.548;14.348;2023-03-11T06:26:04;1.60;;;1.50;;
17850;SDS011;9051;51.548;14.348;2023-03-11T06:28:41;1.63;;;1.47;;
17850;SDS011;9051;51.548;14.348;2023-03-11T06:31:14;1.97;;;1.50;;
17850;SDS011;9051;51.548;14.348;2023-03-11T06:33:50;1.43;;;1.20;;
17850;SDS011;9051;51.548;14.348;2023-03-11T06:36:25;2.93;;;2.33;;
17850;SDS011;9051;51.548;14.348;2023-03-11T06:38:57;2.30;;;2.10;;
17850;SDS011;9051;51.548;14.348;2023-03-11T06:41:31;1.67;;;1.57;;
17850;SDS011;9051;51.548;14.348;2023-03-11T06:44:05;2.47;;;2.27;;
17850;SDS011;9051;51.548;14.348;2023-03-11T06:46:39;1.70;;;1.60;;
17850;SDS011;9051;51.548;14.348;2023-03-11T06:49:13;1.83;;;1.60;;
17850;SDS011;9051;51.548;14.348;2023-03-11T06:51:46;9.43;;;4.63;;
17850;SDS011;9051;51.548;14.348;2023-03-11T06:54:19;4.50;;;2.37;;
17850;SDS011;9051;51.548;14.348;2023-03-11T06:56:51;4.13;;;2.30;;
17850;SDS011;9051;51.548;14.348;2023-03-11T06:59:23;4.50;;;2.50;;
17850;SDS011;9051;51.548;14.348;2023-03-11T07:01:58;2.63;;;2.30;;
17850;SDS011;9051;51.548;14.348;2023-03-11T07:04:33;2.13;;;1.73;;
17850;SDS011;9051;51.548;14.348;2023-03-11T07:07:05;2.23;;;1.90;;
17850;SDS011;9051;51.548;14.348;2023-03-11T07:09:37;1.67;;;1.57;;
17850;SDS011;9051;51.548;14.348;2023-03-11T07:12:11;2.57;;;2.20;;
17850;SDS011;9051;51.548;14.348;2023-03-11T07:14:44;2.60;;;2.40;;
17850;SDS011;9051;51.548;14.348;2023-03-11T07:17:16;3.10;;;2.33;;
17850;SDS011;9051;51.548;14.348;2023-03-11T07:19:53;3.43;;;2.47;;
17850;SDS011;9051;51.548;14.348;2023-03-11T07:22:25;2.70;;;2.10;;
17850;SDS011;9051;51.548;14.348;2023-03-11T07:24:57;2.00;;;1.80;;
17850;SDS011;9051;51.548;14.348;2023-03-11T07:27:29;2.17;;;1.80;;
17850;SDS011;9051;51.548;14.348;2023-03-11T07:30:01;1.97;;;1.50;;
17850;SDS011;9051;51.548;14.348;2023-03-11T07:32:34;1.97;;;1.77;;
17850;SDS011;9051;51.548;14.348;2023-03-11T07:35:08;2.10;;;1.90;;
17850;SDS011;9051;51.548;14.348;2023-03-11T07:37:40;1.73;;;1.60;;
17850;SDS011;9051;51.548;14.348;2023-03-11T07:40:12;2.00;;;1.80;;
17850;SDS011;9051;51.548;14.348;2023-03-11T07:42:46;2.03;;;1.87;;
17850;SDS011;9051;51.548;14.348;2023-03-11T07:45:19;2.43;;;2.23;;
17850;SDS011;9051;51.548;14.348;2023-03-11T07:47:51;2.90;;;2.10;;
17850;SDS011;9051;51.548;14.348;2023-03-11T07:50:24;2.50;;;2.30;;
17850;SDS011;9051;51.548;14.348;2023-03-11T07:52:57;2.70;;;2.47;;
17850;SDS011;9051;51.548;14.348;2023-03-11T07:55:28;3.03;;;2.73;;
17850;SDS011;9051;51.548;14.348;2023-03-11T07:58:00;2.93;;;2.70;;
17850;SDS011;9051;51.548;14.348;2023-03-11T08:00:32;4.63;;;3.10;;
17850;SDS011;9051;51.548;14.348;2023-03-11T08:03:04;3.97;;;2.60;;
17850;SDS011;9051;51.548;14.348;2023-03-11T08:05:38;3.47;;;2.67;;
17850;SDS011;9051;51.548;14.348;2023-03-11T08:08:10;3.10;;;2.73;;
17850;SDS011;9051;51.548;14.348;2023-03-11T08:10:46;3.87;;;3.00;;
17850;SDS011;9051;51.548;14.348;2023-03-11T08:13:18;4.13;;;3.27;;
17850;SDS011;9051;51.548;14.348;2023-03-11T08:15:50;5.33;;;3.83;;
17850;SDS011;9051;51.548;14.348;2023-03-11T08:18:22;3.57;;;3.27;;
17850;SDS011;9051;51.548;14.348;2023-03-11T08:20:56;5.50;;;3.43;;
17850;SDS011;9051;51.548;14.348;2023-03-11T08:23:28;4.17;;;3.33;;
17850;SDS011;9051;51.548;14.348;2023-03-11T08:26:01;2.80;;;2.60;;
17850;SDS011;9051;51.548;14.348;2023-03-11T08:28:37;3.57;;;3.27;;
17850;SDS011;9051;51.548;14.348;2023-03-11T08:31:12;4.80;;;3.73;;
17850;SDS011;9051;51.548;14.348;2023-03-11T08:33:45;6.10;;;3.90;;
17850;SDS011;9051;51.548;14.348;2023-03-11T08:36:20;3.73;;;3.30;;
17850;SDS011;9051;51.548;14.348;2023-03-11T08:38:52;8.47;;;4.37;;
17850;SDS011;9051;51.548;14.348;2023-03-11T08:41:25;6.23;;;4.00;;
17850;SDS011;9051;51.548;14.348;2023-03-11T08:43:58;9.23;;;4.37;;
17850;SDS011;9051;51.548;14.348;2023-03-11T08:46:31;13.90;;;4.77;;
17850;SDS011;9051;51.548;14.348;2023-03-11T08:49:05;14.30;;;5.73;;
17850;SDS011;9051;51.548;14.348;2023-03-11T08:51:39;7.47;;;5.03;;
17850;SDS011;9051;51.548;14.348;2023-03-11T08:54:11;10.03;;;5.27;;
17850;SDS011;9051;51.548;14.348;2023-03-11T08:56:46;6.97;;;4.47;;
17850;SDS011;9051;51.548;14.348;2023-03-11T08:59:24;13.47;;;5.13;;
17850;SDS011;9051;51.548;14.348;2023-03-11T09:01:58;5.10;;;3.77;;
17850;SDS011;9051;51.548;14.348;2023-03-11T09:04:32;6.17;;;4.87;;
17850;SDS011;9051;51.548;14.348;2023-03-11T09:07:06;5.10;;;3.77;;
17850;SDS011;9051;51.548;14.348;2023-03-11T09:09:41;4.60;;;3.87;;
17850;SDS011;9051;51.548;14.348;2023-03-11T09:12:13;3.87;;;3.50;;
17850;SDS011;9051;51.548;14.348;2023-03-11T09:14:45;3.83;;;3.43;;
17850;SDS011;9051;51.548;14.348;2023-03-11T09:17:17;6.27;;;4.40;;
17850;SDS011;9051;51.548;14.348;2023-03-11T09:19:49;6.03;;;4.37;;
17850;SDS011;9051;51.548;14.348;2023-03-11T09:22:22;5.33;;;4.00;;
17850;SDS011;9051;51.548;14.348;2023-03-11T09:24:55;4.03;;;3.60;;
17850;SDS011;9051;51.548;14.348;2023-03-11T09:27:29;5.43;;;4.50;;
17850;SDS011;9051;51.548;14.348;2023-03-11T09:30:01;4.87;;;3.83;;
17850;SDS011;9051;51.548;14.348;2023-03-11T09:32:33;5.00;;;4.20;;
17850;SDS011;9051;51.548;14.348;2023-03-11T09:35:05;4.67;;;3.57;;
17850;SDS011;9051;51.548;14.348;2023-03-11T09:37:38;4.90;;;3.87;;
17850;SDS011;9051;51.548;14.348;2023-03-11T09:40:12;4.03;;;3.63;;
17850;SDS011;9051;51.548;14.348;2023-03-11T09:42:48;6.23;;;3.70;;
17850;SDS011;9051;51.548;14.348;2023-03-11T09:45:27;5.10;;;3.93;;
17850;SDS011;9051;51.548;14.348;2023-03-11T09:48:03;4.03;;;3.40;;
17850;SDS011;9051;51.548;14.348;2023-03-11T09:50:47;6.10;;;3.67;;
17850;SDS011;9051;51.548;14.348;2023-03-11T09:53:27;3.20;;;2.90;;
17850;SDS011;9051;51.548;14.348;2023-03-11T09:56:07;5.33;;;3.97;;
17850;SDS011;9051;51.548;14.348;2023-03-11T09:58:40;5.00;;;3.57;;
17850;SDS011;9051;51.548;14.348;2023-03-11T10:01:17;3.63;;;2.60;;
17850;SDS011;9051;51.548;14.348;2023-03-11T10:03:54;6.23;;;3.67;;
17850;SDS011;9051;51.548;14.348;2023-03-11T10:06:28;3.10;;;2.40;;
17850;SDS011;9051;51.548;14.348;2023-03-11T10:09:04;3.67;;;2.67;;
17850;SDS011;9051;51.548;14.348;2023-03-11T10:11:46;2.97;;;2.67;;
17850;SDS011;9051;51.548;14.348;2023-03-11T10:14:33;3.27;;;2.70;;
17850;SDS011;9051;51.548;14.348;2023-03-11T10:17:18;3.93;;;3.00;;
17850;SDS011;9051;51.548;14.348;2023-03-11T10:20:02;3.80;;;3.03;;
17850;SDS011;9051;51.548;14.348;2023-03-11T10:22:40;4.30;;;2.93;;
17850;SDS011;9051;51.548;14.348;2023-03-11T10:25:19;5.83;;;3.20;;
17850;SDS011;9051;51.548;14.348;2023-03-11T10:27:56;3.67;;;2.70;;
17850;SDS011;9051;51.548;14.348;2023-03-11T10:30:32;3.73;;;3.30;;
17850;SDS011;9051;51.548;14.348;2023-03-11T10:33:11;3.93;;;3.30;;
17850;SDS011;9051;51.548;14.348;2023-03-11T10:35:51;4.27;;;3.33;;
17850;SDS011;9051;51.548;14.348;2023-03-11T10:38:25;5.07;;;4.20;;
17850;SDS011;9051;51.548;14.348;2023-03-11T10:41:04;4.77;;;3.40;;
17850;SDS011;9051;51.548;14.348;2023-03-11T10:43:43;4.57;;;3.60;;
17850;SDS011;9051;51.548;14.348;2023-03-11T10:46:21;4.27;;;3.67;;
17850;SDS011;9051;51.548;14.348;2023-03-11T10:48:55;3.90;;;3.40;;
17850;SDS011;9051;51.548;14.348;2023-03-11T10:51:30;4.37;;;3.07;;
17850;SDS011;9051;51.548;14.348;2023-03-11T10:54:04;3.63;;;3.10;;
17850;SDS011;9051;51.548;14.348;2023-03-11T10:56:38;4.83;;;3.77;;
17850;SDS011;9051;51.548;14.348;2023-03-11T10:59:19;3.37;;;3.07;;
17850;SDS011;9051;51.548;14.348;2023-03-11T11:01:55;6.67;;;5.10;;
17850;SDS011;9051;51.548;14.348;2023-03-11T11:04:30;6.27;;;5.37;;
17850;SDS011;9051;51.548;14.348;2023-03-11T11:07:19;5.23;;;4.63;;
17850;SDS011;9051;51.548;14.348;2023-03-11T11:10:11;6.70;;;5.43;;
17850;SDS011;9051;51.548;14.348;2023-03-11T11:12:52;9.07;;;5.43;;
17850;SDS011;9051;51.548;14.348;2023-03-11T11:15:27;8.37;;;6.90;;
17850;SDS011;9051;51.548;14.348;2023-03-11T11:18:01;7.90;;;6.47;;
17850;SDS011;9051;51.548;14.348;2023-03-11T11:20:36;4.83;;;4.37;;
17850;SDS011;9051;51.548;14.348;2023-03-11T11:23:09;8.27;;;5.67;;
17850;SDS011;9051;51.548;14.348;2023-03-11T11:25:57;6.93;;;5.10;;
17850;SDS011;9051;51.548;14.348;2023-03-11T11:28:32;7.17;;;5.10;;
17850;SDS011;9051;51.548;14.348;2023-03-11T11:31:05;5.67;;;4.67;;
17850;SDS011;9051;51.548;14.348;2023-03-11T11:33:51;6.07;;;5.03;;
17850;SDS011;9051;51.548;14.348;2023-03-11T11:36:26;6.57;;;5.10;;
17850;SDS011;9051;51.548;14.348;2023-03-11T11:39:00;6.20;;;4.97;;
17850;SDS011;9051;51.548;14.348;2023-03-11T11:41:34;6.47;;;4.93;;
17850;SDS011;9051;51.548;14.348;2023-03-11T11:44:09;5.40;;;4.40;;
17850;SDS011;9051;51.548;14.348;2023-03-11T11:46:48;4.97;;;4.43;;
17850;SDS011;9051;51.548;14.348;2023-03-11T11:49:26;5.40;;;4.60;;
17850;SDS011;9051;51.548;14.348;2023-03-11T11:52:01;6.07;;;4.70;;
17850;SDS011;9051;51.548;14.348;2023-03-11T11:54:39;5.03;;;4.50;;
17850;SDS011;9051;51.548;14.348;2023-03-11T11:57:19;7.17;;;5.57;;
17850;SDS011;9051;51.548;14.348;2023-03-11T11:59:54;5.43;;;4.70;;
17850;SDS011;9051;51.548;14.348;2023-03-11T12:02:30;6.43;;;4.73;;
17850;SDS011;9051;51.548;14.348;2023-03-11T12:05:14;6.10;;;4.27;;
17850;SDS011;9051;51.548;14.348;2023-03-11T12:07:56;6.03;;;5.17;;
17850;SDS011;9051;51.548;14.348;2023-03-11T12:10:40;6.63;;;4.77;;
17850;SDS011;9051;51.548;14.348;2023-03-11T12:13:20;5.33;;;4.57;;
17850;SDS011;9051;51.548;14.348;2023-03-11T12:16:04;5.33;;;4.67;;
17850;SDS011;9051;51.548;14.348;2023-03-11T12:18:45;6.30;;;5.20;;
17850;SDS011;9051;51.548;14.348;2023-03-11T12:21:24;5.90;;;4.77;;
17850;SDS011;9051;51.548;14.348;2023-03-11T12:24:10;6.77;;;4.73;;
17850;SDS011;9051;51.548;14.348;2023-03-11T12:26:53;5.30;;;4.00;;
17850;SDS011;9051;51.548;14.348;2023-03-11T12:29:32;4.53;;;3.90;;
17850;SDS011;9051;51.548;14.348;2023-03-11T12:32:08;4.93;;;4.23;;
17850;SDS011;9051;51.548;14.348;2023-03-11T12:34:53;5.33;;;4.20;;
17850;SDS011;9051;51.548;14.348;2023-03-11T12:37:25;4.67;;;4.17;;
17850;SDS011;9051;51.548;14.348;2023-03-11T12:39:57;6.27;;;4.17;;
17850;SDS011;9051;51.548;14.348;2023-03-11T12:42:46;4.77;;;3.43;;
17850;SDS011;9051;51.548;14.348;2023-03-11T12:48:32;6.37;;;3.70;;
17850;SDS011;9051;51.548;14.348;2023-03-11T12:51:05;5.37;;;4.10;;
17850;SDS011;9051;51.548;14.348;2023-03-11T12:53:57;4.73;;;4.23;;
17850;SDS011;9051;51.548;14.348;2023-03-11T12:56:29;5.47;;;4.70;;
17850;SDS011;9051;51.548;14.348;2023-03-11T12:59:12;4.30;;;3.83;;
17850;SDS011;9051;51.548;14.348;2023-03-11T13:02:11;5.30;;;4.03;;
17850;SDS011;9051;51.548;14.348;2023-03-11T13:05:02;6.83;;;5.30;;
17850;SDS011;9051;51.548;14.348;2023-03-11T13:07:47;7.17;;;5.30;;
17850;SDS011;9051;51.548;14.348;2023-03-11T13:10:35;6.77;;;4.70;;
17850;SDS011;9051;51.548;14.348;2023-03-11T13:19:31;6.20;;;4.97;;
17850;SDS011;9051;51.548;14.348;2023-03-11T13:22:32;7.63;;;5.03;;
17850;SDS011;9051;51.548;14.348;2023-03-11T13:28:13;4.43;;;3.70;;
17850;SDS011;9051;51.548;14.348;2023-03-11T13:31:04;5.53;;;4.23;;
17850;SDS011;9051;51.548;14.348;2023-03-11T13:33:47;5.30;;;4.23;;
17850;SDS011;9051;51.548;14.348;2023-03-11T13:36:35;5.57;;;4.80;;
17850;SDS011;9051;51.548;14.348;2023-03-11T13:39:35;4.93;;;3.90;;
17850;SDS011;9051;51.548;14.348;2023-03-11T13:42:17;5.57;;;4.20;;
17850;SDS011;9051;51.548;14.348;2023-03-11T13:44:56;5.40;;;3.70;;
17850;SDS011;9051;51.548;14.348;2023-03-11T13:47:30;4.93;;;4.03;;
17850;SDS011;9051;51.548;14.348;2023-03-11T13:50:04;4.30;;;3.67;;
17850;SDS011;9051;51.548;14.348;2023-03-11T13:52:41;4.73;;;3.80;;
17850;SDS011;9051;51.548;14.348;2023-03-11T13:55:20;8.90;;;5.27;;
17850;SDS011;9051;51.548;14.348;2023-03-11T13:58:12;4.47;;;3.77;;
17850;SDS011;9051;51.548;14.348;2023-03-11T14:00:46;5.83;;;4.37;;
17850;SDS011;9051;51.548;14.348;2023-03-11T14:03:20;4.20;;;3.80;;
17850;SDS011;9051;51.548;14.348;2023-03-11T14:05:59;4.80;;;4.10;;
17850;SDS011;9051;51.548;14.348;2023-03-11T14:08:33;3.33;;;2.77;;
17850;SDS011;9051;51.548;14.348;2023-03-11T14:11:15;4.27;;;3.60;;
17850;SDS011;9051;51.548;14.348;2023-03-11T14:13:48;4.60;;;3.13;;
17850;SDS011;9051;51.548;14.348;2023-03-11T14:16:22;3.70;;;3.30;;
17850;SDS011;9051;51.548;14.348;2023-03-11T14:19:00;4.67;;;3.60;;
17850;SDS011;9051;51.548;14.348;2023-03-11T14:21:33;4.33;;;3.40;;
17850;SDS011;9051;51.548;14.348;2023-03-11T14:24:06;4.47;;;3.13;;
17850;SDS011;9051;51.548;14.348;2023-03-11T14:26:48;4.87;;;3.83;;
17850;SDS011;9051;51.548;14.348;2023-03-11T14:29:26;4.00;;;3.60;;
17850;SDS011;9051;51.548;14.348;2023-03-11T14:32:14;4.43;;;3.67;;
17850;SDS011;9051;51.548;14.348;2023-03-11T14:34:47;4.30;;;3.37;;
17850;SDS011;9051;51.548;14.348;2023-03-11T14:37:23;6.33;;;3.93;;
17850;SDS011;9051;51.548;14.348;2023-03-11T14:39:57;4.47;;;3.90;;
17850;SDS011;9051;51.548;14.348;2023-03-11T14:42:32;4.37;;;3.80;;
17850;SDS011;9051;51.548;14.348;2023-03-11T14:45:09;4.87;;;4.37;;
17850;SDS011;9051;51.548;14.348;2023-03-11T14:47:45;6.03;;;4.50;;
17850;SDS011;9051;51.548;14.348;2023-03-11T14:50:23;5.00;;;4.27;;
17850;SDS011;9051;51.548;14.348;2023-03-11T14:52:57;5.60;;;4.23;;
17850;SDS011;9051;51.548;14.348;2023-03-11T14:55:32;6.00;;;4.13;;
17850;SDS011;9051;51.548;14.348;2023-03-11T14:58:12;5.90;;;4.47;;
17850;SDS011;9051;51.548;14.348;2023-03-11T15:00:50;5.67;;;4.17;;
17850;SDS011;9051;51.548;14.348;2023-03-11T15:03:26;6.17;;;4.33;;
17850;SDS011;9051;51.548;14.348;2023-03-11T15:06:02;5.67;;;4.40;;
17850;SDS011;9051;51.548;14.348;2023-03-11T15:08:41;6.07;;;4.30;;
17850;SDS011;9051;51.548;14.348;2023-03-11T15:11:22;4.37;;;3.97;;
17850;SDS011;9051;51.548;14.348;2023-03-11T15:14:08;6.73;;;4.17;;
17850;SDS011;9051;51.548;14.348;2023-03-11T15:16:50;4.17;;;3.57;;
17850;SDS011;9051;51.548;14.348;2023-03-11T15:19:28;4.60;;;3.80;;
17850;SDS011;9051;51.548;14.348;2023-03-11T15:22:04;6.00;;;4.17;;
17850;SDS011;9051;51.548;14.348;2023-03-11T15:24:52;5.60;;;4.03;;
17850;SDS011;9051;51.548;14.348;2023-03-11T15:27:27;4.20;;;3.40;;
17850;SDS011;9051;51.548;14.348;2023-03-11T15:30:03;5.60;;;4.30;;
17850;SDS011;9051;51.548;14.348;2023-03-11T15:32:48;5.80;;;4.50;;
17850;SDS011;9051;51.548;14.348;2023-03-11T15:35:21;6.27;;;4.60;;
17850;SDS011;9051;51.548;14.348;2023-03-11T15:38:10;5.90;;;4.90;;
17850;SDS011;9051;51.548;14.348;2023-03-11T15:40:48;8.73;;;5.50;;
17850;SDS011;9051;51.548;14.348;2023-03-11T15:43:23;7.73;;;4.77;;
17850;SDS011;9051;51.548;14.348;2023-03-11T15:45:59;4.70;;;4.17;;
17850;SDS011;9051;51.548;14.348;2023-03-11T15:48:32;6.93;;;4.60;;
17850;SDS011;9051;51.548;14.348;2023-03-11T15:51:04;7.70;;;6.30;;